createdAt,value
2023-02-11T00:01:19.635Z,57.22
2023-02-11T00:03:46.335Z,57.28
2023-02-11T00:06:13.091Z,59.35
2023-02-11T00:08:40.207Z,56.78
2023-02-11T00:11:07.907Z,52.03
2023-02-11T00:13:34.422Z,52.72
2023-02-11T00:16:06.801Z,56.30
2023-02-11T00:18:33.256Z,54.33
2023-02-11T00:20:59.969Z,52.55
2023-02-11T00:23:26.354Z,54.85
2023-02-11T00:25:53.124Z,52.15
2023-02-11T00:28:19.967Z,56.92
2023-02-11T00:30:54.772Z,61.20
2023-02-11T00:33:21.473Z,56.55
2023-02-11T00:35:48.380Z,57.72
2023-02-11T00:38:14.996Z,57.03
2023-02-11T00:40:41.526Z,57.40
2023-02-11T00:43:08.429Z,55.83
2023-02-11T00:45:35.031Z,54.20
2023-02-11T00:48:01.624Z,55.30
2023-02-11T00:50:28.445Z,51.47
2023-02-11T00:52:55.029Z,54.67
2023-02-11T00:55:21.742Z,53.13
2023-02-11T00:57:48.398Z,49.67
2023-02-11T01:00:15.370Z,54.67
2023-02-11T01:02:41.796Z,54.28
2023-02-11T01:05:08.736Z,53.45
2023-02-11T01:07:35.254Z,59.08
2023-02-11T01:10:01.833Z,55.47
2023-02-11T01:12:28.444Z,59.60
2023-02-11T01:14:55.000Z,59.90
2023-02-11T01:17:21.420Z,56.15
2023-02-11T01:19:48.033Z,54.00
2023-02-11T01:22:14.694Z,52.92
2023-02-11T01:24:41.110Z,53.22
2023-02-11T01:27:07.781Z,54.08
2023-02-11T01:29:34.442Z,54.42
2023-02-11T01:32:02.241Z,49.50
2023-02-11T01:34:29.129Z,48.42
2023-02-11T01:36:59.581Z,52.75
2023-02-11T01:39:27.405Z,51.13
2023-02-11T01:41:54.432Z,53.95
2023-02-11T01:44:37.589Z,48.92
2023-02-11T01:47:07.108Z,51.30
2023-02-11T01:49:37.141Z,53.85
2023-02-11T01:52:10.341Z,54.75
2023-02-11T01:55:02.976Z,58.22
2023-02-11T01:57:32.395Z,55.13
2023-02-11T02:00:14.296Z,53.92
2023-02-11T02:02:46.053Z,51.83
2023-02-11T02:05:32.561Z,55.92
2023-02-11T02:08:09.644Z,59.47
2023-02-11T02:10:40.690Z,52.58
2023-02-11T02:13:07.342Z,59.72
2023-02-11T02:15:36.187Z,59.13
2023-02-11T02:18:14.635Z,60.40
2023-02-11T02:20:56.237Z,64.15
2023-02-11T02:23:36.893Z,57.60
2023-02-11T02:26:41.094Z,59.40
2023-02-11T02:29:26.633Z,55.75
2023-02-11T02:32:11.791Z,53.58
2023-02-11T02:34:56.581Z,60.13
2023-02-11T02:37:31.472Z,61.60
2023-02-11T02:40:03.380Z,57.70
2023-02-11T02:42:31.657Z,54.65
2023-02-11T02:44:59.410Z,53.75
2023-02-11T02:47:26.109Z,53.40
2023-02-11T02:49:52.735Z,55.88
2023-02-11T02:52:42.217Z,54.80
2023-02-11T02:55:13.279Z,58.17
2023-02-11T02:58:17.700Z,63.10
2023-02-11T03:01:00.574Z,59.47
2023-02-11T03:03:58.673Z,56.20
2023-02-11T03:06:39.246Z,59.97
2023-02-11T03:09:20.034Z,63.20
2023-02-11T03:11:46.734Z,64.05
2023-02-11T03:14:17.404Z,60.28
2023-02-11T03:16:45.896Z,62.35
2023-02-11T03:19:26.499Z,60.80
2023-02-11T03:21:53.720Z,61.40
2023-02-11T03:24:34.772Z,60.60
2023-02-11T03:27:12.742Z,60.20
2023-02-11T03:30:15.110Z,59.90
2023-02-11T03:32:51.949Z,58.67
2023-02-11T03:35:32.576Z,63.45
2023-02-11T03:38:19.264Z,62.53
2023-02-11T03:40:46.182Z,57.63
2023-02-11T03:43:18.905Z,59.40
2023-02-11T03:45:48.653Z,57.95
2023-02-11T03:48:20.623Z,59.15
2023-02-11T03:50:50.813Z,62.35
2023-02-11T03:53:19.014Z,58.70
2023-02-11T03:55:47.744Z,47.58
2023-02-11T03:58:14.960Z,49.88
2023-02-11T04:00:42.902Z,55.03
2023-02-11T04:03:10.592Z,53.08
2023-02-11T04:05:37.747Z,53.95
2023-02-11T04:08:05.003Z,51.25
2023-02-11T04:10:31.699Z,58.95
2023-02-11T04:12:58.660Z,54.10
2023-02-11T04:15:26.050Z,57.50
2023-02-11T04:17:52.809Z,57.45
2023-02-11T04:20:19.576Z,64.32
2023-02-11T04:22:46.166Z,55.40
2023-02-11T04:25:13.521Z,55.15
2023-02-11T04:27:40.128Z,53.55
2023-02-11T04:30:10.270Z,60.78
2023-02-11T04:32:36.712Z,58.15
2023-02-11T04:35:03.817Z,57.55
2023-02-11T04:37:30.236Z,48.97
2023-02-11T04:39:56.877Z,56.15
2023-02-11T04:42:23.332Z,47.88
2023-02-11T04:44:49.799Z,57.50
2023-02-11T04:47:16.212Z,56.63
2023-02-11T04:49:42.605Z,56.03
2023-02-11T04:52:09.148Z,55.00
2023-02-11T04:54:35.670Z,50.75
2023-02-11T04:57:02.097Z,49.22
2023-02-11T04:59:28.484Z,56.25
2023-02-11T05:01:55.237Z,52.10
2023-02-11T05:04:21.704Z,56.75
2023-02-11T05:06:48.401Z,55.47
2023-02-11T05:09:15.173Z,52.95
2023-02-11T05:11:41.873Z,55.35
2023-02-11T05:14:08.559Z,50.40
2023-02-11T05:16:35.253Z,53.47
2023-02-11T05:19:01.677Z,56.97
2023-02-11T05:21:28.481Z,53.28
2023-02-11T05:23:55.061Z,55.03
2023-02-11T05:26:21.481Z,54.03
2023-02-11T05:28:48.260Z,53.33
2023-02-11T05:31:15.134Z,53.85
2023-02-11T05:33:42.190Z,55.97
2023-02-11T05:36:11.452Z,54.63
2023-02-11T05:38:39.051Z,50.72
2023-02-11T05:41:06.243Z,54.90
2023-02-11T05:43:35.023Z,53.40
2023-02-11T05:46:01.632Z,55.05
2023-02-11T05:48:28.116Z,54.30
2023-02-11T05:50:54.815Z,50.95
2023-02-11T05:53:22.021Z,52.83
2023-02-11T05:55:48.967Z,56.92
2023-02-11T05:58:16.160Z,54.65
2023-02-11T06:00:42.733Z,51.25
2023-02-11T06:03:09.266Z,54.40
2023-02-11T06:05:38.030Z,50.58
2023-02-11T06:08:04.749Z,53.15
2023-02-11T06:10:31.358Z,49.42
2023-02-11T06:12:57.905Z,51.90
2023-02-11T06:15:24.253Z,50.63
2023-02-11T06:17:50.652Z,50.05
2023-02-11T06:20:17.367Z,53.63
2023-02-11T06:22:44.551Z,51.60
2023-02-11T06:25:11.722Z,52.58
2023-02-11T06:27:39.349Z,50.57
2023-02-11T06:30:08.732Z,52.60
2023-02-11T06:32:43.951Z,51.00
2023-02-11T06:35:12.404Z,53.03
2023-02-11T06:37:40.072Z,47.80
2023-02-11T06:40:06.846Z,59.05
2023-02-11T06:42:33.277Z,52.13
2023-02-11T06:44:59.928Z,52.55
2023-02-11T06:47:26.336Z,54.00
2023-02-11T06:49:52.697Z,52.80
2023-02-11T06:52:19.264Z,53.58
2023-02-11T06:54:45.902Z,54.97
2023-02-11T06:57:12.277Z,55.45
2023-02-11T06:59:38.897Z,54.33
2023-02-11T07:02:05.362Z,53.03
2023-02-11T07:04:32.143Z,50.63
2023-02-11T07:06:58.576Z,55.63
2023-02-11T07:09:24.962Z,54.28
2023-02-11T07:11:51.759Z,50.80
2023-02-11T07:14:18.414Z,50.90
2023-02-11T07:16:45.088Z,55.05
2023-02-11T07:19:11.791Z,50.17
2023-02-11T07:21:38.365Z,77.80
2023-02-11T07:24:11.065Z,55.13
2023-02-11T07:26:38.121Z,48.83
2023-02-11T07:29:05.025Z,51.90
2023-02-11T07:31:32.398Z,57.75
2023-02-11T07:34:01.265Z,52.50
2023-02-11T07:36:29.416Z,53.75
2023-02-11T07:38:56.102Z,53.00
2023-02-11T07:41:24.604Z,52.55
2023-02-11T07:43:51.581Z,52.50
2023-02-11T07:46:21.359Z,55.53
2023-02-11T07:48:48.380Z,58.45
2023-02-11T07:51:18.002Z,51.25
2023-02-11T07:53:45.780Z,51.33
2023-02-11T07:56:14.513Z,51.63
2023-02-11T07:58:43.804Z,51.15
2023-02-11T08:01:13.543Z,54.63
2023-02-11T08:03:42.916Z,53.95
2023-02-11T08:06:15.550Z,55.15
2023-02-11T08:08:43.354Z,52.88
2023-02-11T08:11:16.452Z,48.78
2023-02-11T08:13:45.016Z,55.47
2023-02-11T08:16:33.018Z,50.22
2023-02-11T08:19:01.928Z,46.03
2023-02-11T08:21:29.250Z,49.95
2023-02-11T08:23:56.382Z,49.80
2023-02-11T08:26:30.344Z,49.63
2023-02-11T08:28:59.075Z,48.50
2023-02-11T08:31:33.237Z,46.60
2023-02-11T08:33:59.852Z,50.13
2023-02-11T08:36:38.036Z,47.15
2023-02-11T08:39:18.724Z,44.90
2023-02-11T08:41:49.147Z,49.75
2023-02-11T08:44:16.915Z,68.25
2023-02-11T08:46:43.354Z,54.65
2023-02-11T08:49:09.920Z,46.58
2023-02-11T08:51:36.517Z,45.67
2023-02-11T08:54:03.382Z,45.03
2023-02-11T08:56:31.622Z,42.23
2023-02-11T08:58:58.336Z,51.47
2023-02-11T09:01:29.121Z,42.58
2023-02-11T09:03:57.297Z,47.72
2023-02-11T09:06:25.574Z,46.13
2023-02-11T09:08:55.265Z,42.80
2023-02-11T09:11:26.444Z,44.13
2023-02-11T09:13:54.538Z,43.45
2023-02-11T09:16:26.884Z,50.08
2023-02-11T09:18:54.097Z,46.22
2023-02-11T09:21:21.967Z,44.20
2023-02-11T09:23:48.846Z,41.85
2023-02-11T09:26:18.305Z,40.85
2023-02-11T09:28:44.855Z,43.38
2023-02-11T09:31:14.371Z,43.78
2023-02-11T09:33:48.381Z,42.30
2023-02-11T09:36:19.034Z,40.20
2023-02-11T09:38:46.620Z,39.85
2023-02-11T09:41:43.294Z,38.67
2023-02-11T09:44:18.872Z,36.58
2023-02-11T09:46:53.873Z,39.37
2023-02-11T09:49:26.446Z,38.85
2023-02-11T09:52:03.770Z,41.08
2023-02-11T09:54:40.700Z,37.92
2023-02-11T09:57:23.003Z,39.33
2023-02-11T09:59:53.347Z,37.77
2023-02-11T10:02:43.317Z,40.35
2023-02-11T10:05:16.760Z,39.35
2023-02-11T10:07:56.216Z,40.33
2023-02-11T10:10:56.906Z,41.13
2023-02-11T10:13:42.451Z,35.37
2023-02-11T10:16:32.972Z,36.30
2023-02-11T10:19:27.578Z,35.47
2023-02-11T10:22:20.468Z,34.72
2023-02-11T10:25:00.483Z,33.47
2023-02-11T10:27:32.321Z,36.03
2023-02-11T10:30:18.664Z,32.33
2023-02-11T10:32:51.300Z,31.80
2023-02-11T10:35:21.647Z,32.17
2023-02-11T10:37:48.801Z,32.67
2023-02-11T10:40:24.876Z,30.57
2023-02-11T10:42:59.499Z,28.73
2023-02-11T10:45:40.035Z,28.77
2023-02-11T10:48:38.644Z,28.88
2023-02-11T10:51:14.039Z,30.27
2023-02-11T10:53:41.296Z,28.73
2023-02-11T10:56:10.894Z,29.42
2023-02-11T10:58:43.847Z,26.73
2023-02-11T11:01:23.739Z,29.17
2023-02-11T11:03:52.442Z,27.35
2023-02-11T11:06:33.840Z,27.63
2023-02-11T11:09:01.046Z,30.25
2023-02-11T11:11:27.942Z,28.20
2023-02-11T11:13:54.321Z,27.35
2023-02-11T11:16:25.381Z,26.00
2023-02-11T11:19:13.544Z,27.43
2023-02-11T11:21:45.084Z,30.17
2023-02-11T11:24:39.840Z,30.45
2023-02-11T11:27:06.803Z,28.20
2023-02-11T11:29:55.245Z,27.02
2023-02-11T11:32:33.698Z,30.23
2023-02-11T11:35:04.361Z,29.17
2023-02-11T11:37:37.168Z,26.98
2023-02-11T11:40:24.582Z,25.05
2023-02-11T11:43:03.770Z,25.52
2023-02-11T11:45:30.498Z,24.33
2023-02-11T11:48:19.357Z,24.33
2023-02-11T11:50:59.928Z,26.63
2023-02-11T11:53:51.153Z,24.92
2023-02-11T11:56:30.148Z,25.23
2023-02-11T11:58:56.964Z,23.07
2023-02-11T12:02:02.440Z,24.27
2023-02-11T12:04:46.479Z,25.60
2023-02-11T12:07:27.053Z,23.67
2023-02-11T12:10:38.861Z,43.78
2023-02-11T12:13:12.182Z,24.47
2023-02-11T12:15:59.844Z,26.45
2023-02-11T12:19:04.037Z,25.48
2023-02-11T12:22:03.989Z,26.92
2023-02-11T12:24:42.995Z,26.90
2023-02-11T12:27:31.625Z,28.53
2023-02-11T12:30:16.472Z,24.08
2023-02-11T12:33:06.720Z,23.85
2023-02-11T12:35:46.792Z,23.80
2023-02-11T12:38:38.014Z,24.90
2023-02-11T12:41:45.492Z,27.00
2023-02-11T12:44:37.529Z,23.48
2023-02-11T12:47:32.516Z,22.25
2023-02-11T12:50:28.076Z,23.45
2023-02-11T12:53:18.713Z,25.15
2023-02-11T12:55:48.947Z,22.13
2023-02-11T12:58:21.770Z,20.80
2023-02-11T13:01:08.769Z,21.30
2023-02-11T13:03:43.175Z,24.17
2023-02-11T13:06:14.658Z,21.30
2023-02-11T13:08:46.145Z,26.37
2023-02-11T13:11:26.787Z,24.30
2023-02-11T13:14:01.952Z,24.45
2023-02-11T13:16:29.752Z,23.38
2023-02-11T13:19:01.663Z,22.30
2023-02-11T13:21:47.834Z,23.57
2023-02-11T13:24:44.415Z,25.25
2023-02-11T13:27:23.901Z,24.67
2023-02-11T13:30:22.495Z,26.42
2023-02-11T13:32:54.897Z,27.58
2023-02-11T13:35:34.899Z,22.33
2023-02-11T13:38:18.674Z,24.40
2023-02-11T13:40:45.922Z,24.17
2023-02-11T13:43:28.829Z,23.55
2023-02-11T13:46:04.995Z,28.40
2023-02-11T13:48:37.904Z,24.67
2023-02-11T13:51:12.304Z,25.70
2023-02-11T13:53:55.862Z,30.52
2023-02-11T13:56:39.978Z,26.40
2023-02-11T13:59:39.161Z,26.23
2023-02-11T14:02:40.640Z,24.50
2023-02-11T14:05:25.688Z,25.20
2023-02-11T14:08:26.103Z,23.73
2023-02-11T14:10:54.749Z,27.80
2023-02-11T14:13:35.503Z,24.95
2023-02-11T14:16:22.677Z,24.83
2023-02-11T14:18:54.587Z,24.35
2023-02-11T14:21:30.389Z,25.08
2023-02-11T14:24:04.711Z,27.02
2023-02-11T14:26:57.888Z,25.00
2023-02-11T14:29:35.193Z,22.13
2023-02-11T14:32:31.087Z,22.90
2023-02-11T14:35:32.028Z,25.70
2023-02-11T14:38:18.354Z,31.58
2023-02-11T14:41:15.915Z,23.40
2023-02-11T14:43:55.873Z,22.27
2023-02-11T14:46:24.671Z,24.58
2023-02-11T14:48:55.387Z,24.75
2023-02-11T14:51:31.720Z,24.40
2023-02-11T14:54:15.302Z,24.23
2023-02-11T14:56:42.476Z,22.87
2023-02-11T14:59:22.554Z,24.00
2023-02-11T15:01:54.680Z,24.52
2023-02-11T15:04:31.020Z,27.38
2023-02-11T15:07:03.218Z,24.75
2023-02-11T15:09:41.612Z,27.07
2023-02-11T15:12:25.097Z,24.42
2023-02-11T15:14:55.500Z,25.80
2023-02-11T15:17:24.889Z,25.30
2023-02-11T15:19:55.355Z,23.00
2023-02-11T15:22:28.123Z,23.77
2023-02-11T15:25:24.185Z,24.15
2023-02-11T15:27:56.650Z,24.63
2023-02-11T15:30:23.162Z,25.70
2023-02-11T15:32:50.837Z,24.33
2023-02-11T15:35:18.579Z,23.73
2023-02-11T15:37:45.456Z,23.10
2023-02-11T15:40:27.912Z,26.80
2023-02-11T15:42:58.521Z,31.27
2023-02-11T15:45:29.079Z,25.73
2023-02-11T15:47:59.742Z,24.60
2023-02-11T15:50:33.301Z,28.83
2023-02-11T15:53:23.445Z,27.80
2023-02-11T15:55:53.044Z,25.00
2023-02-11T15:58:20.716Z,23.90
2023-02-11T16:00:50.750Z,25.40
2023-02-11T16:03:32.817Z,24.10
2023-02-11T16:06:16.012Z,22.33
2023-02-11T16:08:43.315Z,22.02
2023-02-11T16:11:26.198Z,23.80
2023-02-11T16:13:52.828Z,20.20
2023-02-11T16:16:25.985Z,20.80
2023-02-11T16:19:05.674Z,24.52
2023-02-11T16:21:42.578Z,23.52
2023-02-11T16:24:19.556Z,25.25
2023-02-11T16:26:50.269Z,23.80
2023-02-11T16:29:22.194Z,20.90
2023-02-11T16:31:50.433Z,21.05
2023-02-11T16:34:19.130Z,22.30
2023-02-11T16:36:46.667Z,20.35
2023-02-11T16:39:13.102Z,22.03
2023-02-11T16:41:39.698Z,21.45
2023-02-11T16:44:06.521Z,22.45
2023-02-11T16:46:33.728Z,24.17
2023-02-11T16:49:10.776Z,23.98
2023-02-11T16:51:41.529Z,22.47
2023-02-11T16:54:13.594Z,21.55
2023-02-11T16:56:43.217Z,25.70
2023-02-11T16:59:09.868Z,21.02
2023-02-11T17:01:39.494Z,22.10
2023-02-11T17:04:07.002Z,21.83
2023-02-11T17:06:34.763Z,22.00
2023-02-11T17:09:01.352Z,31.30
2023-02-11T17:11:27.702Z,32.78
2023-02-11T17:13:54.104Z,30.70
2023-02-11T17:16:23.354Z,28.40
2023-02-11T17:18:49.806Z,30.00
2023-02-11T17:21:16.529Z,26.70
2023-02-11T17:23:43.121Z,28.75
2023-02-11T17:26:09.980Z,30.98
2023-02-11T17:28:36.767Z,34.93
2023-02-11T17:31:08.963Z,38.75
2023-02-11T17:33:37.680Z,39.70
2023-02-11T17:36:06.806Z,34.60
2023-02-11T17:38:35.317Z,34.80
2023-02-11T17:41:03.895Z,44.77
2023-02-11T17:43:30.977Z,48.58
2023-02-11T17:45:58.360Z,47.78
2023-02-11T17:48:25.051Z,46.45
2023-02-11T17:50:51.605Z,33.30
2023-02-11T17:53:18.272Z,26.77
2023-02-11T17:55:44.912Z,22.48
2023-02-11T17:58:11.585Z,23.00
2023-02-11T18:00:38.093Z,28.73
2023-02-11T18:03:04.969Z,27.58
2023-02-11T18:05:38.161Z,26.70
2023-02-11T18:08:06.600Z,29.10
2023-02-11T18:10:34.311Z,29.67
2023-02-11T18:13:01.850Z,28.23
2023-02-11T18:15:28.523Z,29.17
2023-02-11T18:17:56.030Z,26.20
2023-02-11T18:20:22.624Z,25.85
2023-02-11T18:22:49.307Z,30.83
2023-02-11T18:25:15.988Z,28.52
2023-02-11T18:27:42.419Z,30.50
2023-02-11T18:30:15.631Z,26.73
2023-02-11T18:32:42.612Z,36.97
2023-02-11T18:35:15.208Z,29.35
2023-02-11T18:37:42.739Z,34.95
2023-02-11T18:40:10.842Z,30.90
2023-02-11T18:42:38.105Z,29.43
2023-02-11T18:45:07.345Z,25.63
2023-02-11T18:47:34.016Z,24.77
2023-02-11T18:50:00.342Z,27.70
2023-02-11T18:52:26.704Z,30.40
2023-02-11T18:54:53.094Z,28.00
2023-02-11T18:57:19.711Z,31.58
2023-02-11T18:59:46.088Z,26.55
2023-02-11T19:02:12.743Z,29.25
2023-02-11T19:04:39.378Z,23.17
2023-02-11T19:07:06.098Z,24.60
2023-02-11T19:09:32.559Z,30.35
2023-02-11T19:12:00.969Z,34.15
2023-02-11T19:14:33.519Z,29.45
2023-02-11T19:17:03.382Z,27.80
2023-02-11T19:19:31.484Z,30.80
2023-02-11T19:22:01.286Z,28.98
2023-02-11T19:24:30.011Z,36.63
2023-02-11T19:26:59.102Z,46.42
2023-02-11T19:29:26.786Z,57.50
2023-02-11T19:31:53.326Z,72.27
2023-02-11T19:34:20.708Z,44.45
2023-02-11T19:36:49.155Z,35.13
2023-02-11T19:39:16.113Z,34.13
2023-02-11T19:41:43.122Z,33.88
2023-02-11T19:44:10.085Z,39.87
2023-02-11T19:46:41.173Z,44.08
2023-02-11T19:49:10.035Z,44.55
2023-02-11T19:51:39.148Z,33.63
2023-02-11T19:54:06.893Z,28.35
2023-02-11T19:56:34.162Z,29.67
2023-02-11T19:59:02.918Z,28.08
2023-02-11T20:01:29.700Z,29.10
2023-02-11T20:03:57.488Z,31.67
2023-02-11T20:06:29.360Z,39.17
2023-02-11T20:09:00.709Z,30.37
2023-02-11T20:11:30.278Z,33.53
2023-02-11T20:13:57.561Z,34.50
2023-02-11T20:16:41.032Z,31.67
2023-02-11T20:19:18.385Z,44.33
2023-02-11T20:21:47.773Z,46.37
2023-02-11T20:24:15.398Z,34.55
2023-02-11T20:26:42.679Z,36.53
2023-02-11T20:29:09.275Z,34.38
2023-02-11T20:31:35.861Z,50.65
2023-02-11T20:34:02.910Z,48.83
2023-02-11T20:36:32.395Z,50.25
2023-02-11T20:39:00.331Z,54.17
2023-02-11T20:41:31.040Z,40.17
2023-02-11T20:44:00.122Z,31.45
2023-02-11T20:46:29.317Z,27.47
2023-02-11T20:48:57.407Z,29.55
2023-02-11T20:51:26.942Z,33.75
2023-02-11T20:53:53.818Z,32.08
2023-02-11T20:56:26.114Z,32.60
2023-02-11T20:58:53.274Z,35.93
2023-02-11T21:01:29.809Z,31.33
2023-02-11T21:04:02.698Z,28.75
2023-02-11T21:06:41.498Z,33.00
2023-02-11T21:09:09.765Z,30.27
2023-02-11T21:11:39.053Z,31.73
2023-02-11T21:14:05.530Z,33.45
2023-02-11T21:16:32.519Z,30.13
2023-02-11T21:19:00.475Z,32.72
2023-02-11T21:21:27.201Z,34.60
2023-02-11T21:23:53.986Z,33.47
2023-02-11T21:26:20.714Z,40.88
2023-02-11T21:28:48.661Z,38.95
2023-02-11T21:31:25.210Z,31.17
2023-02-11T21:33:54.836Z,35.40
2023-02-11T21:36:22.585Z,33.00
2023-02-11T21:38:51.313Z,32.42
2023-02-11T21:41:19.417Z,32.70
2023-02-11T21:43:45.803Z,33.25
2023-02-11T21:46:14.603Z,30.95
2023-02-11T21:48:41.531Z,31.80
2023-02-11T21:51:18.854Z,31.80
2023-02-11T21:53:45.588Z,27.67
2023-02-11T21:56:17.597Z,30.35
2023-02-11T21:58:45.543Z,30.95
2023-02-11T22:01:17.359Z,33.77
2023-02-11T22:03:44.086Z,35.80
2023-02-11T22:06:13.124Z,35.70
2023-02-11T22:08:40.077Z,35.10
2023-02-11T22:11:09.924Z,38.28
2023-02-11T22:13:37.719Z,37.23
2023-02-11T22:16:07.406Z,33.80
2023-02-11T22:18:34.418Z,31.08
2023-02-11T22:21:11.773Z,29.13
2023-02-11T22:23:40.606Z,28.52
2023-02-11T22:26:10.248Z,30.90
2023-02-11T22:28:39.162Z,27.67
2023-02-11T22:31:06.285Z,28.52
2023-02-11T22:33:33.192Z,30.92
2023-02-11T22:36:05.906Z,32.42
2023-02-11T22:38:33.062Z,34.03
2023-02-11T22:41:04.989Z,43.10
2023-02-11T22:43:31.762Z,35.50
2023-02-11T22:46:02.482Z,33.88
2023-02-11T22:48:29.265Z,31.23
2023-02-11T22:50:55.955Z,29.30
2023-02-11T22:53:25.440Z,31.13
2023-02-11T22:55:52.450Z,31.38
2023-02-11T22:58:19.281Z,29.08
2023-02-11T23:00:46.038Z,26.63
2023-02-11T23:03:12.972Z,27.47
2023-02-11T23:05:41.194Z,26.40
2023-02-11T23:08:09.689Z,28.02
2023-02-11T23:10:37.465Z,26.52
2023-02-11T23:13:05.667Z,26.73
2023-02-11T23:15:33.077Z,27.53
2023-02-11T23:17:59.987Z,29.17
2023-02-11T23:20:26.642Z,28.73
2023-02-11T23:22:53.262Z,25.67
2023-02-11T23:25:19.932Z,26.60
2023-02-11T23:27:46.319Z,27.43
2023-02-11T23:30:13.285Z,27.50
2023-02-11T23:32:39.735Z,29.90
2023-02-11T23:35:06.502Z,32.95
2023-02-11T23:37:33.099Z,27.92
2023-02-11T23:39:59.879Z,26.88
2023-02-11T23:42:26.453Z,29.17
2023-02-11T23:44:52.806Z,23.67
2023-02-11T23:47:19.305Z,29.02
2023-02-11T23:49:45.892Z,26.35
2023-02-11T23:52:12.234Z,25.77
2023-02-11T23:54:38.801Z,25.00
2023-02-11T23:57:05.378Z,24.50
2023-02-11T23:59:31.939Z,25.30
